createdAt,value
2022-10-30T00:00:57.819Z,1.77
2022-10-30T00:03:25.338Z,2.05
2022-10-30T00:05:52.893Z,2.50
2022-10-30T00:08:21.228Z,2.08
2022-10-30T00:10:49.054Z,1.40
2022-10-30T00:13:16.559Z,1.63
2022-10-30T00:15:49.905Z,1.60
2022-10-30T00:18:17.411Z,1.70
2022-10-30T00:20:44.906Z,2.22
2022-10-30T00:23:12.374Z,1.50
2022-10-30T00:25:39.774Z,1.67
2022-10-30T00:28:07.332Z,1.45
2022-10-30T00:30:34.885Z,1.40
2022-10-30T00:33:04.005Z,1.65
2022-10-30T00:35:31.480Z,2.03
2022-10-30T00:38:00.557Z,1.70
2022-10-30T00:40:28.516Z,2.28
2022-10-30T00:42:56.625Z,1.52
2022-10-30T00:45:24.062Z,1.77
2022-10-30T00:47:53.380Z,1.67
2022-10-30T00:52:59.594Z,1.75
2022-10-30T00:55:28.982Z,1.73
2022-10-30T00:57:56.554Z,1.65
2022-10-30T01:00:24.151Z,1.65
2022-10-30T01:02:52.145Z,2.13
2022-10-30T01:05:20.463Z,1.58
2022-10-30T01:07:49.484Z,1.50
2022-10-30T01:10:17.043Z,1.48
2022-10-30T01:12:44.460Z,1.23
2022-10-30T01:15:11.863Z,1.35
2022-10-30T01:18:14.776Z,1.50
2022-10-30T01:20:57.299Z,1.60
2022-10-30T01:23:34.113Z,1.80
2022-10-30T01:26:07.708Z,1.38
2022-10-30T01:28:49.991Z,1.65
2022-10-30T01:31:23.721Z,1.40
2022-10-30T01:33:59.303Z,1.88
2022-10-30T01:36:29.172Z,1.50
2022-10-30T01:39:00.270Z,1.67
2022-10-30T01:41:27.780Z,1.90
2022-10-30T01:43:56.477Z,1.38
2022-10-30T01:46:33.852Z,1.40
2022-10-30T01:49:15.847Z,1.52
2022-10-30T01:51:50.720Z,1.20
2022-10-30T01:54:25.623Z,1.83
2022-10-30T01:56:59.752Z,1.75
2022-10-30T01:59:29.620Z,1.33
2022-10-30T02:01:57.204Z,1.40
2022-10-30T02:04:24.959Z,1.60
2022-10-30T02:06:52.710Z,1.20
2022-10-30T02:09:21.676Z,1.95
2022-10-30T02:11:49.287Z,1.80
2022-10-30T02:14:18.493Z,2.05
2022-10-30T02:16:49.247Z,2.42
2022-10-30T02:19:16.837Z,1.67
2022-10-30T02:21:45.861Z,1.42
2022-10-30T02:24:13.498Z,1.98
2022-10-30T02:26:41.073Z,1.23
2022-10-30T02:29:08.602Z,1.85
2022-10-30T02:31:37.098Z,1.30
2022-10-30T02:34:04.622Z,2.03
2022-10-30T02:36:32.179Z,1.67
2022-10-30T02:39:01.368Z,1.63
2022-10-30T02:41:29.062Z,1.35
2022-10-30T02:43:56.612Z,1.98
2022-10-30T02:46:24.086Z,1.67
2022-10-30T02:48:51.635Z,1.17
2022-10-30T02:51:19.215Z,2.28
2022-10-30T02:53:46.729Z,1.73
2022-10-30T02:56:15.836Z,1.98
2022-10-30T02:58:43.389Z,2.28
2022-10-30T03:01:11.764Z,2.15
2022-10-30T03:03:39.513Z,1.60
2022-10-30T03:06:08.421Z,2.05
2022-10-30T03:08:36.091Z,1.65
2022-10-30T03:11:06.340Z,2.33
2022-10-30T03:13:35.402Z,1.38
2022-10-30T03:16:03.074Z,1.35
2022-10-30T03:18:30.709Z,1.45
2022-10-30T03:20:58.774Z,1.40
2022-10-30T03:23:26.356Z,1.70
2022-10-30T03:25:54.400Z,1.35
2022-10-30T03:28:22.112Z,1.85
2022-10-30T03:30:51.287Z,1.55
2022-10-30T03:33:18.874Z,1.50
2022-10-30T03:35:46.449Z,2.35
2022-10-30T03:38:14.017Z,1.60
2022-10-30T03:40:41.661Z,1.45
2022-10-30T03:43:09.214Z,1.42
2022-10-30T03:45:36.775Z,2.13
2022-10-30T03:48:06.338Z,1.48
2022-10-30T03:50:33.952Z,1.60
2022-10-30T03:53:01.529Z,1.50
2022-10-30T03:55:29.049Z,1.50
2022-10-30T03:57:56.781Z,1.60
2022-10-30T04:00:24.837Z,1.80
2022-10-30T04:02:52.628Z,1.25
2022-10-30T04:05:22.683Z,1.65
2022-10-30T04:07:55.227Z,1.60
2022-10-30T04:10:23.967Z,1.98
2022-10-30T04:12:52.134Z,2.83
2022-10-30T04:15:19.700Z,1.48
2022-10-30T04:17:50.203Z,1.95
2022-10-30T04:20:17.911Z,1.38
2022-10-30T04:22:47.092Z,2.05
2022-10-30T04:25:14.664Z,1.77
2022-10-30T04:27:42.338Z,1.80
2022-10-30T04:30:11.690Z,1.85
2022-10-30T04:32:46.601Z,1.10
2022-10-30T04:35:14.296Z,1.50
2022-10-30T04:37:41.862Z,1.40
2022-10-30T04:40:12.034Z,1.83
2022-10-30T04:42:39.529Z,2.05
2022-10-30T04:45:14.103Z,1.48
2022-10-30T04:47:42.669Z,1.58
2022-10-30T04:50:10.270Z,1.70
2022-10-30T04:52:37.827Z,1.30
2022-10-30T04:55:06.049Z,1.58
2022-10-30T04:57:34.951Z,1.42
2022-10-30T05:00:02.469Z,1.63
2022-10-30T05:02:30.010Z,1.33
2022-10-30T05:04:57.722Z,1.17
2022-10-30T05:07:25.148Z,1.17
2022-10-30T05:09:52.558Z,0.80
2022-10-30T05:12:19.927Z,0.50
2022-10-30T05:14:48.947Z,0.73
2022-10-30T05:17:16.356Z,0.80
2022-10-30T05:19:43.978Z,0.60
2022-10-30T05:22:11.435Z,0.88
2022-10-30T05:24:38.919Z,0.70
2022-10-30T05:27:06.343Z,1.00
2022-10-30T05:29:33.747Z,0.80
2022-10-30T05:32:02.720Z,0.93
2022-10-30T05:34:30.386Z,0.90
2022-10-30T05:36:57.727Z,0.80
2022-10-30T05:39:25.233Z,1.00
2022-10-30T05:41:52.599Z,0.65
2022-10-30T05:44:34.292Z,0.90
2022-10-30T05:47:08.911Z,0.60
2022-10-30T05:49:36.347Z,0.70
2022-10-30T05:52:03.997Z,1.02
2022-10-30T05:54:31.404Z,0.73
2022-10-30T05:56:58.803Z,0.70
2022-10-30T05:59:26.194Z,0.75
2022-10-30T06:01:53.605Z,0.60
2022-10-30T06:04:22.471Z,0.85
2022-10-30T06:06:49.890Z,1.08
2022-10-30T06:09:17.278Z,0.80
2022-10-30T06:11:44.687Z,0.65
2022-10-30T06:14:12.058Z,0.55
2022-10-30T06:16:39.807Z,0.65
2022-10-30T06:19:07.198Z,0.63
2022-10-30T06:21:36.093Z,0.70
2022-10-30T06:24:03.755Z,0.80
2022-10-30T06:26:31.104Z,0.70
2022-10-30T06:28:58.455Z,0.70
2022-10-30T06:31:25.822Z,0.85
2022-10-30T06:33:53.253Z,0.55
2022-10-30T06:36:20.681Z,0.55
2022-10-30T06:38:49.562Z,0.60
2022-10-30T06:41:17.010Z,0.85
2022-10-30T06:43:44.452Z,0.68
2022-10-30T06:46:11.900Z,0.70
2022-10-30T06:48:39.405Z,0.90
2022-10-30T06:51:06.961Z,0.80
2022-10-30T06:53:34.373Z,0.57
2022-10-30T06:56:03.878Z,0.60
2022-10-30T06:58:31.384Z,0.73
2022-10-30T07:01:00.484Z,0.70
2022-10-30T07:03:27.894Z,0.80
2022-10-30T07:05:55.296Z,0.57
2022-10-30T07:08:22.829Z,0.40
2022-10-30T07:10:50.230Z,0.50
2022-10-30T07:13:19.088Z,1.02
2022-10-30T07:15:46.523Z,0.50
2022-10-30T07:18:13.964Z,0.73
2022-10-30T07:20:41.330Z,0.52
2022-10-30T07:23:08.788Z,0.50
2022-10-30T07:25:36.174Z,0.50
2022-10-30T07:28:03.866Z,0.65
2022-10-30T07:30:32.769Z,0.77
2022-10-30T07:33:02.070Z,0.70
2022-10-30T07:35:30.379Z,0.90
2022-10-30T07:38:01.768Z,0.77
2022-10-30T07:40:29.200Z,0.75
2022-10-30T07:42:57.309Z,0.73
2022-10-30T07:45:25.137Z,0.57
2022-10-30T07:47:53.995Z,0.60
2022-10-30T07:50:21.434Z,0.90
2022-10-30T07:52:48.864Z,0.68
2022-10-30T07:55:16.348Z,0.93
2022-10-30T07:57:43.726Z,0.60
2022-10-30T08:00:12.694Z,0.60
2022-10-30T08:02:40.361Z,0.60
2022-10-30T08:05:10.029Z,0.60
2022-10-30T08:07:38.213Z,0.70
2022-10-30T08:10:06.610Z,0.70
2022-10-30T08:12:34.122Z,0.57
2022-10-30T08:15:01.546Z,0.80
2022-10-30T08:17:28.997Z,0.60
2022-10-30T08:19:56.470Z,0.80
2022-10-30T08:22:25.390Z,0.60
2022-10-30T08:24:52.817Z,0.90
2022-10-30T08:27:20.196Z,1.15
2022-10-30T08:29:47.590Z,0.65
2022-10-30T08:32:15.041Z,0.80
2022-10-30T08:34:42.473Z,0.90
2022-10-30T08:37:09.909Z,0.98
2022-10-30T08:39:38.791Z,1.00
2022-10-30T08:42:06.272Z,0.80
2022-10-30T08:44:33.696Z,0.60
2022-10-30T08:47:01.137Z,0.77
2022-10-30T08:49:28.557Z,0.70
2022-10-30T08:51:56.004Z,0.70
2022-10-30T08:54:23.435Z,1.25
2022-10-30T08:56:52.445Z,1.13
2022-10-30T08:59:21.367Z,0.73
2022-10-30T09:01:49.427Z,0.70
2022-10-30T09:04:16.906Z,0.77
2022-10-30T09:06:44.368Z,0.82
2022-10-30T09:09:11.823Z,0.98
2022-10-30T09:11:39.289Z,1.00
2022-10-30T09:14:08.155Z,0.80
2022-10-30T09:16:35.537Z,0.85
2022-10-30T09:19:03.007Z,0.70
2022-10-30T09:21:30.524Z,0.60
2022-10-30T09:23:57.966Z,0.88
2022-10-30T09:26:25.374Z,1.05
2022-10-30T09:28:52.866Z,0.93
2022-10-30T09:31:21.737Z,0.70
2022-10-30T09:33:49.241Z,0.98
2022-10-30T09:36:18.206Z,0.65
2022-10-30T09:38:48.895Z,0.82
2022-10-30T09:41:29.852Z,0.90
2022-10-30T09:44:05.873Z,0.90
2022-10-30T09:46:45.368Z,0.60
2022-10-30T09:49:21.357Z,0.68
2022-10-30T09:52:00.702Z,0.65
2022-10-30T09:54:31.200Z,0.85
2022-10-30T09:57:02.360Z,0.80
2022-10-30T09:59:36.654Z,1.00
2022-10-30T10:04:41.809Z,0.90
2022-10-30T10:07:14.493Z,0.75
2022-10-30T10:09:42.285Z,0.65
2022-10-30T10:12:11.800Z,0.73
2022-10-30T10:14:41.257Z,0.90
2022-10-30T10:17:13.038Z,1.13
2022-10-30T10:19:42.276Z,0.90
2022-10-30T10:22:18.860Z,0.90
2022-10-30T10:24:46.443Z,0.90
2022-10-30T10:27:19.770Z,1.48
2022-10-30T10:29:53.750Z,1.00
2022-10-30T10:35:41.155Z,1.00
2022-10-30T10:38:12.868Z,0.80
2022-10-30T10:40:48.176Z,1.10
2022-10-30T10:43:21.963Z,1.10
2022-10-30T10:45:53.226Z,0.88
2022-10-30T10:48:54.976Z,0.95
2022-10-30T10:51:23.093Z,1.10
2022-10-30T10:53:54.045Z,1.02
2022-10-30T10:56:24.563Z,0.98
2022-10-30T10:58:54.203Z,0.80
2022-10-30T11:01:34.967Z,1.20
2022-10-30T11:04:05.662Z,0.80
2022-10-30T11:06:34.398Z,0.98
2022-10-30T11:09:12.188Z,0.98
2022-10-30T11:11:39.810Z,1.02
2022-10-30T11:14:12.517Z,0.95
2022-10-30T11:16:44.392Z,0.70
2022-10-30T11:19:13.481Z,0.60
2022-10-30T11:21:44.091Z,0.70
2022-10-30T11:24:27.749Z,0.43
2022-10-30T11:26:55.766Z,0.60
2022-10-30T11:29:24.297Z,1.80
2022-10-30T11:32:00.330Z,0.70
2022-10-30T11:34:36.246Z,0.98
2022-10-30T11:37:04.192Z,0.75
2022-10-30T11:39:32.749Z,0.68
2022-10-30T11:42:05.855Z,1.00
2022-10-30T11:44:37.002Z,1.00
2022-10-30T11:47:05.015Z,0.75
2022-10-30T11:49:40.193Z,0.50
2022-10-30T11:52:07.892Z,1.25
2022-10-30T11:54:37.750Z,0.45
2022-10-30T11:57:05.421Z,0.80
2022-10-30T11:59:33.010Z,0.70
2022-10-30T12:02:02.983Z,1.00
2022-10-30T12:04:31.001Z,0.93
2022-10-30T12:07:12.569Z,0.60
2022-10-30T12:09:43.119Z,0.73
2022-10-30T12:12:20.404Z,0.98
2022-10-30T12:14:48.080Z,0.77
2022-10-30T12:17:15.950Z,0.80
2022-10-30T12:19:48.018Z,0.90
2022-10-30T12:22:28.464Z,0.75
2022-10-30T12:24:55.952Z,0.93
2022-10-30T12:27:23.609Z,0.70
2022-10-30T12:30:09.198Z,1.08
2022-10-30T12:32:42.251Z,0.95
2022-10-30T12:35:17.418Z,0.85
2022-10-30T12:37:46.697Z,0.75
2022-10-30T12:40:16.604Z,0.60
2022-10-30T12:42:49.269Z,0.88
2022-10-30T12:45:19.044Z,0.90
2022-10-30T12:47:49.857Z,0.88
2022-10-30T12:50:20.751Z,0.95
2022-10-30T12:52:54.894Z,0.90
2022-10-30T12:55:24.698Z,0.77
2022-10-30T12:57:55.440Z,0.80
2022-10-30T13:00:23.227Z,0.73
2022-10-30T13:02:54.769Z,1.00
2022-10-30T13:05:28.308Z,0.85
2022-10-30T13:08:05.117Z,0.70
2022-10-30T13:10:34.700Z,0.73
2022-10-30T13:13:05.808Z,0.60
2022-10-30T13:15:36.084Z,0.43
2022-10-30T13:18:16.153Z,0.88
2022-10-30T13:20:45.916Z,0.88
2022-10-30T13:23:17.634Z,1.00
2022-10-30T13:25:52.203Z,0.90
2022-10-30T13:28:23.000Z,1.00
2022-10-30T13:30:54.940Z,0.95
2022-10-30T13:33:24.539Z,0.70
2022-10-30T13:35:54.925Z,0.65
2022-10-30T13:38:35.770Z,0.63
2022-10-30T13:41:09.742Z,1.05
2022-10-30T13:46:28.943Z,1.25
2022-10-30T13:49:09.686Z,0.70
2022-10-30T13:51:41.519Z,0.60
2022-10-30T13:54:16.254Z,0.80
2022-10-30T13:56:44.252Z,0.88
2022-10-30T13:59:33.007Z,0.90
2022-10-30T14:02:03.180Z,0.90
2022-10-30T14:04:35.419Z,0.70
2022-10-30T14:07:21.492Z,0.90
2022-10-30T14:09:55.080Z,1.20
2022-10-30T14:12:50.728Z,0.60
2022-10-30T14:15:32.136Z,1.15
2022-10-30T14:18:25.212Z,0.73
2022-10-30T14:20:53.123Z,0.70
2022-10-30T14:23:22.683Z,0.73
2022-10-30T14:26:13.912Z,0.85
2022-10-30T14:28:42.169Z,1.13
2022-10-30T14:31:10.470Z,0.80
2022-10-30T14:33:45.446Z,0.85
2022-10-30T14:36:23.283Z,0.77
2022-10-30T14:38:55.372Z,1.02
2022-10-30T14:41:40.975Z,1.10
2022-10-30T14:44:44.187Z,1.02
2022-10-30T14:47:48.102Z,0.45
2022-10-30T14:50:23.483Z,0.80
2022-10-30T14:53:02.516Z,0.50
2022-10-30T14:55:32.986Z,0.57
2022-10-30T14:58:19.805Z,0.70
2022-10-30T15:00:47.412Z,0.90
2022-10-30T15:03:33.922Z,0.60
2022-10-30T15:06:03.823Z,0.35
2022-10-30T15:08:56.588Z,0.50
2022-10-30T15:11:37.577Z,0.65
2022-10-30T15:14:20.825Z,0.63
2022-10-30T15:16:51.237Z,0.95
2022-10-30T15:19:18.809Z,0.70
2022-10-30T15:21:48.913Z,0.90
2022-10-30T15:24:18.125Z,0.65
2022-10-30T15:26:47.426Z,0.60
2022-10-30T15:29:18.975Z,0.73
2022-10-30T15:31:46.575Z,0.98
2022-10-30T15:34:21.945Z,0.40
2022-10-30T15:36:49.552Z,0.55
2022-10-30T15:39:17.952Z,0.70
2022-10-30T15:41:46.755Z,0.47
2022-10-30T15:49:24.286Z,0.70
2022-10-30T15:51:51.869Z,0.47
2022-10-30T15:54:19.715Z,0.43
2022-10-30T15:57:17.887Z,0.50
2022-10-30T15:59:35.838Z,0.70
2022-10-30T16:02:19.906Z,0.63
2022-10-30T16:07:18.477Z,0.80
2022-10-30T16:09:53.173Z,0.57
2022-10-30T16:12:20.640Z,0.40
2022-10-30T16:14:48.003Z,0.45
2022-10-30T16:17:17.169Z,0.52
2022-10-30T16:19:46.531Z,0.50
2022-10-30T16:22:15.601Z,0.52
2022-10-30T16:24:43.350Z,0.75
2022-10-30T16:27:15.656Z,0.93
2022-10-30T16:29:43.041Z,0.50
2022-10-30T16:32:11.294Z,0.50
2022-10-30T16:34:40.235Z,0.85
2022-10-30T16:37:11.252Z,0.50
2022-10-30T16:39:38.703Z,0.45
2022-10-30T16:42:06.253Z,3.97
2022-10-30T16:44:34.491Z,1.35
2022-10-30T16:47:04.310Z,2.05
2022-10-30T16:49:32.850Z,2.58
2022-10-30T16:52:03.763Z,4.95
2022-10-30T16:54:33.290Z,7.10
2022-10-30T16:57:01.537Z,7.00
2022-10-30T16:59:31.998Z,11.75
2022-10-30T17:02:00.778Z,9.48
2022-10-30T17:04:29.258Z,6.53
2022-10-30T17:07:07.155Z,9.02
2022-10-30T17:09:36.635Z,9.68
2022-10-30T17:12:19.217Z,10.90
2022-10-30T17:14:52.077Z,10.35
2022-10-30T17:17:31.401Z,7.82
2022-10-30T17:20:00.656Z,5.97
2022-10-30T17:22:29.541Z,7.95
2022-10-30T17:24:58.019Z,8.35
2022-10-30T17:27:45.196Z,8.45
2022-10-30T17:30:35.363Z,10.57
2022-10-30T17:33:04.370Z,10.05
2022-10-30T17:35:31.904Z,8.60
2022-10-30T17:38:03.015Z,10.27
2022-10-30T17:40:30.910Z,10.27
2022-10-30T17:42:58.499Z,10.90
2022-10-30T17:45:26.226Z,11.18
2022-10-30T17:47:53.583Z,11.93
2022-10-30T17:50:21.180Z,11.48
2022-10-30T17:52:48.650Z,13.18
2022-10-30T17:55:24.192Z,13.13
2022-10-30T17:57:51.718Z,13.88
2022-10-30T18:00:19.492Z,13.73
2022-10-30T18:02:46.875Z,12.25
2022-10-30T18:05:15.871Z,12.98
2022-10-30T18:07:43.669Z,12.88
2022-10-30T18:10:11.347Z,12.48
2022-10-30T18:12:40.263Z,12.43
2022-10-30T18:15:39.108Z,13.20
2022-10-30T18:18:06.588Z,12.68
2022-10-30T18:20:34.162Z,11.40
2022-10-30T18:23:02.294Z,12.70
2022-10-30T18:25:33.065Z,13.48
2022-10-30T18:28:02.349Z,13.88
2022-10-30T18:30:29.961Z,13.52
2022-10-30T18:32:58.041Z,12.60
2022-10-30T18:35:29.277Z,13.88
2022-10-30T18:37:56.942Z,12.00
2022-10-30T18:40:24.744Z,11.20
2022-10-30T18:42:52.422Z,11.70
2022-10-30T18:45:23.415Z,11.60
2022-10-30T18:47:51.167Z,10.85
2022-10-30T18:50:19.511Z,10.50
2022-10-30T18:52:47.083Z,10.95
2022-10-30T18:55:19.960Z,11.02
2022-10-30T18:57:47.757Z,10.35
2022-10-30T19:00:16.269Z,10.05
2022-10-30T19:02:45.523Z,11.20
2022-10-30T19:05:36.483Z,10.35
2022-10-30T19:08:04.514Z,9.98
2022-10-30T19:10:33.133Z,9.73
2022-10-30T19:13:12.007Z,10.18
2022-10-30T19:15:41.837Z,8.93
2022-10-30T19:18:10.869Z,10.70
2022-10-30T19:21:02.895Z,9.00
2022-10-30T19:23:26.064Z,9.80
2022-10-30T19:25:53.789Z,8.73
2022-10-30T19:28:21.536Z,8.77
2022-10-30T19:30:49.716Z,9.30
2022-10-30T19:33:20.147Z,9.40
2022-10-30T19:35:53.490Z,9.05
2022-10-30T19:38:21.070Z,8.20
2022-10-30T19:40:48.692Z,8.35
2022-10-30T19:43:16.317Z,8.82
2022-10-30T19:45:43.946Z,7.63
2022-10-30T19:48:17.755Z,7.68
2022-10-30T19:50:49.980Z,6.85
2022-10-30T19:53:17.581Z,6.90
2022-10-30T19:55:45.109Z,7.32
2022-10-30T19:58:14.756Z,6.88
2022-10-30T20:00:43.417Z,7.38
2022-10-30T20:03:12.417Z,7.18
2022-10-30T20:05:41.462Z,7.43
2022-10-30T20:08:12.511Z,6.75
2022-10-30T20:10:41.429Z,6.72
2022-10-30T20:13:09.784Z,7.00
2022-10-30T20:15:37.363Z,6.53
2022-10-30T20:18:12.076Z,6.72
2022-10-30T20:20:40.320Z,6.80
2022-10-30T20:23:09.352Z,6.10
2022-10-30T20:25:37.743Z,5.95
2022-10-30T20:28:12.229Z,5.47
2022-10-30T20:30:39.766Z,5.72
2022-10-30T20:33:09.011Z,5.47
2022-10-30T20:35:36.582Z,5.63
2022-10-30T20:38:04.158Z,5.28
2022-10-30T20:40:33.144Z,5.03
2022-10-30T20:43:02.909Z,5.90
2022-10-30T20:45:31.305Z,4.80
2022-10-30T20:47:59.032Z,5.40
2022-10-30T20:50:26.948Z,5.05
2022-10-30T20:52:54.509Z,5.32
2022-10-30T20:55:22.059Z,5.35
2022-10-30T20:57:51.138Z,5.55
2022-10-30T21:00:18.741Z,6.18
2022-10-30T21:02:46.305Z,4.35
2022-10-30T21:05:37.994Z,5.10
2022-10-30T21:08:01.524Z,5.00
2022-10-30T21:10:30.706Z,4.40
2022-10-30T21:13:03.477Z,4.18
2022-10-30T21:15:35.270Z,5.03
2022-10-30T21:18:03.112Z,4.78
2022-10-30T21:20:30.906Z,5.22
2022-10-30T21:22:58.402Z,4.97
2022-10-30T21:25:25.961Z,5.25
2022-10-30T21:27:53.459Z,4.72
2022-10-30T21:30:22.525Z,4.68
2022-10-30T21:32:50.094Z,4.50
2022-10-30T21:35:17.703Z,5.15
2022-10-30T21:37:45.259Z,4.72
2022-10-30T21:40:13.833Z,4.00
2022-10-30T21:42:41.469Z,3.53
2022-10-30T21:45:10.154Z,3.85
2022-10-30T21:47:39.207Z,4.20
2022-10-30T21:50:11.623Z,3.95
2022-10-30T21:52:40.372Z,3.95
2022-10-30T21:55:08.375Z,3.25
2022-10-30T21:57:36.040Z,3.47
2022-10-30T22:00:06.283Z,3.70
2022-10-30T22:02:34.823Z,2.95
2022-10-30T22:05:04.013Z,3.70
2022-10-30T22:07:31.669Z,3.42
2022-10-30T22:09:59.238Z,3.42
2022-10-30T22:12:26.813Z,3.22
2022-10-30T22:14:54.411Z,3.28
2022-10-30T22:17:21.946Z,2.95
2022-10-30T22:19:49.426Z,3.08
2022-10-30T22:22:18.427Z,3.25
2022-10-30T22:24:45.945Z,3.42
2022-10-30T22:27:13.471Z,3.75
2022-10-30T22:29:41.159Z,3.03
2022-10-30T22:32:08.713Z,3.20
2022-10-30T22:34:36.295Z,2.83
2022-10-30T22:37:03.835Z,3.53
2022-10-30T22:39:32.879Z,3.53
2022-10-30T22:42:00.452Z,3.35
2022-10-30T22:44:28.006Z,2.90
2022-10-30T22:46:55.579Z,2.67
2022-10-30T22:49:23.114Z,2.72
2022-10-30T22:51:50.616Z,2.63
2022-10-30T22:54:18.159Z,2.50
2022-10-30T22:56:47.202Z,2.70
2022-10-30T22:59:14.775Z,2.38
2022-10-30T23:01:42.476Z,2.70
2022-10-30T23:04:10.910Z,1.83
2022-10-30T23:06:38.526Z,2.30
2022-10-30T23:09:07.816Z,2.10
2022-10-30T23:11:35.392Z,2.00
2022-10-30T23:14:04.528Z,2.70
2022-10-30T23:16:32.115Z,2.25
2022-10-30T23:19:00.451Z,2.40
2022-10-30T23:21:29.447Z,1.90
2022-10-30T23:23:57.122Z,2.53
2022-10-30T23:26:25.608Z,2.30
2022-10-30T23:28:53.695Z,2.33
2022-10-30T23:31:24.783Z,2.22
2022-10-30T23:33:53.950Z,1.88
2022-10-30T23:36:21.474Z,2.05
2022-10-30T23:38:51.439Z,2.00
2022-10-30T23:41:18.960Z,2.00
2022-10-30T23:43:46.493Z,2.10
2022-10-30T23:46:14.110Z,2.40
2022-10-30T23:48:43.076Z,2.83
2022-10-30T23:51:10.607Z,2.35
2022-10-30T23:53:38.152Z,2.13
2022-10-30T23:56:06.233Z,2.40
2022-10-30T23:58:33.858Z,2.35
